createdAt,value
2022-11-02T00:01:27.146Z,1.50
2022-11-02T00:11:27.036Z,1.50
2022-11-02T00:16:27.046Z,1.50
2022-11-02T00:21:27.062Z,1.50
2022-11-02T00:31:27.054Z,1.50
2022-11-02T00:36:27.059Z,1.30
2022-11-02T00:41:27.061Z,1.30
2022-11-02T00:46:27.047Z,1.30
2022-11-02T00:51:27.063Z,1.50
2022-11-02T00:56:27.062Z,1.50
2022-11-02T01:01:27.179Z,1.50
2022-11-02T01:06:27.057Z,1.50
2022-11-02T01:11:27.065Z,1.50
2022-11-02T01:16:27.056Z,1.50
2022-11-02T01:21:27.053Z,1.40
2022-11-02T01:26:27.069Z,1.40
2022-11-02T01:31:27.084Z,1.40
2022-11-02T01:36:27.082Z,1.20
2022-11-02T01:51:27.065Z,1.60
2022-11-02T01:56:27.073Z,1.60
2022-11-02T02:01:27.138Z,1.60
2022-11-02T02:06:27.077Z,1.80
2022-11-02T02:11:28.351Z,1.80
2022-11-02T02:16:32.528Z,1.80
2022-11-02T02:41:27.087Z,0.70
2022-11-02T02:56:28.304Z,0.90
2022-11-02T03:01:27.260Z,0.90
2022-11-02T03:06:27.105Z,1.00
2022-11-02T03:11:27.105Z,1.00
2022-11-02T03:16:27.115Z,1.00
2022-11-02T03:21:27.140Z,1.60
2022-11-02T03:26:27.103Z,1.60
2022-11-02T03:36:27.114Z,1.80
2022-11-02T03:46:28.447Z,1.80
2022-11-02T04:26:27.130Z,1.20
2022-11-02T04:36:27.132Z,2.00
2022-11-02T04:41:27.130Z,2.00
2022-11-02T04:46:27.132Z,2.00
2022-11-02T04:51:27.136Z,1.50
2022-11-02T04:56:27.141Z,1.50
2022-11-02T05:06:27.142Z,1.50
2022-11-02T05:11:27.151Z,1.50
2022-11-02T05:16:27.151Z,1.50
2022-11-02T05:21:27.143Z,1.80
2022-11-02T05:26:27.143Z,1.80
2022-11-02T05:31:27.145Z,1.80
2022-11-02T05:51:27.171Z,1.70
2022-11-02T05:56:27.158Z,1.70
2022-11-02T06:01:27.200Z,1.70
2022-11-02T06:11:27.165Z,2.20
2022-11-02T06:16:27.176Z,2.20
2022-11-02T06:21:27.174Z,2.20
2022-11-02T06:26:27.166Z,2.20
2022-11-02T06:36:27.208Z,1.70
2022-11-02T06:41:27.174Z,1.70
2022-11-02T06:51:27.177Z,1.70
2022-11-02T06:56:27.176Z,1.70
2022-11-02T07:01:27.459Z,1.70
2022-11-02T07:11:27.179Z,1.50
2022-11-02T07:26:28.640Z,1.70
2022-11-02T07:41:27.189Z,1.10
2022-11-02T07:46:27.215Z,1.70
2022-11-02T08:01:27.266Z,1.80
2022-11-02T08:06:27.191Z,1.80
2022-11-02T08:11:27.200Z,1.80
2022-11-02T08:16:27.196Z,1.70
2022-11-02T08:21:27.204Z,1.70
2022-11-02T08:26:27.201Z,1.70
2022-11-02T08:36:27.201Z,1.80
2022-11-02T08:46:27.203Z,1.50
2022-11-02T08:56:27.209Z,1.50
2022-11-02T09:01:27.255Z,1.80
2022-11-02T09:06:27.216Z,1.80
2022-11-02T09:11:27.217Z,1.80
2022-11-02T09:16:27.941Z,1.80
2022-11-02T09:21:27.221Z,1.80
2022-11-02T09:26:27.223Z,1.80
2022-11-02T09:31:27.225Z,1.60
2022-11-02T09:36:27.250Z,1.60
2022-11-02T09:41:27.245Z,1.60
2022-11-02T09:46:27.252Z,2.20
2022-11-02T09:51:27.238Z,2.20
2022-11-02T09:56:27.256Z,2.20
2022-11-02T10:06:27.235Z,1.20
2022-11-02T10:11:28.365Z,1.20
2022-11-02T10:16:27.237Z,1.70
2022-11-02T10:21:27.249Z,1.70
2022-11-02T10:26:27.247Z,1.70
2022-11-02T10:31:27.245Z,1.40
2022-11-02T10:36:27.276Z,1.40
2022-11-02T10:41:28.461Z,1.40
2022-11-02T10:46:27.247Z,1.90
2022-11-02T10:56:27.259Z,1.90
2022-11-02T11:01:27.449Z,1.90
2022-11-02T11:06:27.295Z,1.90
2022-11-02T11:11:27.268Z,1.90
2022-11-02T11:16:27.256Z,1.50
2022-11-02T11:26:27.268Z,1.50
2022-11-02T11:31:27.283Z,2.00
2022-11-02T11:36:27.577Z,2.00
2022-11-02T11:41:27.270Z,2.00
2022-11-02T11:46:27.282Z,2.00
2022-11-02T11:51:27.261Z,2.00
2022-11-02T11:56:27.282Z,2.00
2022-11-02T12:01:27.346Z,2.20
2022-11-02T12:06:27.272Z,2.20
2022-11-02T12:11:27.277Z,2.20
2022-11-02T12:16:27.278Z,2.10
2022-11-02T12:26:27.283Z,2.10
2022-11-02T12:31:27.289Z,1.50
2022-11-02T12:41:27.287Z,1.50
2022-11-02T12:46:27.281Z,1.30
2022-11-02T12:51:27.286Z,1.30
2022-11-02T13:06:27.305Z,1.50
2022-11-02T13:31:28.337Z,1.40
2022-11-02T13:36:27.305Z,1.40
2022-11-02T13:41:27.315Z,1.40
2022-11-02T13:46:27.318Z,1.60
2022-11-02T13:51:27.316Z,1.60
2022-11-02T14:01:27.395Z,1.40
2022-11-02T14:06:27.325Z,1.40
2022-11-02T14:11:27.317Z,1.40
2022-11-02T14:16:27.335Z,1.60
2022-11-02T14:31:27.321Z,1.40
2022-11-02T14:36:27.322Z,1.40
2022-11-02T14:41:27.320Z,1.40
2022-11-02T14:46:31.635Z,1.30
2022-11-02T14:51:27.341Z,1.30
2022-11-02T14:56:27.344Z,1.30
2022-11-02T15:11:27.341Z,1.20
2022-11-02T15:16:27.341Z,1.60
2022-11-02T15:21:27.353Z,1.60
2022-11-02T15:26:27.348Z,1.60
2022-11-02T15:31:27.355Z,1.90
2022-11-02T15:36:27.364Z,1.90
2022-11-02T15:41:27.372Z,1.90
2022-11-02T15:46:27.348Z,1.70
2022-11-02T15:56:27.375Z,1.70
2022-11-02T16:01:27.532Z,1.90
2022-11-02T16:11:27.452Z,1.90
2022-11-02T16:16:30.778Z,1.60
2022-11-02T16:26:27.369Z,1.60
2022-11-02T16:31:27.372Z,1.70
2022-11-02T16:46:27.378Z,1.60
2022-11-02T16:51:27.373Z,1.60
2022-11-02T16:56:27.441Z,1.60
2022-11-02T17:16:27.377Z,1.40
2022-11-02T17:26:27.396Z,1.40
2022-11-02T17:31:27.393Z,1.60
2022-11-02T17:41:27.385Z,1.60
2022-11-02T17:46:27.388Z,1.50
2022-11-02T17:56:27.396Z,1.50
2022-11-02T18:16:27.408Z,2.00
2022-11-02T18:21:27.407Z,2.00
2022-11-02T18:26:27.475Z,2.00
2022-11-02T19:11:27.430Z,1.40
2022-11-02T19:16:27.424Z,1.80
2022-11-02T20:01:27.561Z,1.50
2022-11-02T20:41:27.459Z,1.50
2022-11-02T21:01:27.768Z,1.70
2022-11-02T21:16:27.550Z,1.50
2022-11-02T21:21:27.465Z,1.50
2022-11-02T21:36:27.473Z,1.80
2022-11-02T21:41:28.518Z,1.80
2022-11-02T21:46:27.457Z,1.80
2022-11-02T21:51:27.468Z,1.80
2022-11-02T21:56:27.480Z,1.80
2022-11-02T22:36:27.492Z,1.50
2022-11-02T22:41:27.504Z,1.50
2022-11-02T22:46:27.497Z,1.90
2022-11-02T22:51:27.494Z,1.90
2022-11-02T22:56:27.488Z,1.90
2022-11-02T23:11:27.513Z,2.10
2022-11-02T23:16:27.494Z,1.50
